sensor_id;sensor_type;location;lat;lon;timestamp;pressure;altitude;pressure_sealevel;temperature;humidity
29331;BME280;16331;52.528;13.342;2023-04-28T00:02:08;157974.75;;;8.23;99.75
29331;BME280;16331;52.528;13.342;2023-04-28T00:04:34;157978.84;;;8.24;99.09
29331;BME280;16331;52.528;13.342;2023-04-28T00:07:02;157969.25;;;8.21;99.65
29331;BME280;16331;52.528;13.342;2023-04-28T00:09:29;157970.59;;;8.21;99.49
29331;BME280;16331;52.528;13.342;2023-04-28T00:11:55;157974.75;;;8.23;99.25
29331;BME280;16331;52.528;13.342;2023-04-28T00:14:21;157958.28;;;8.17;99.96
29331;BME280;16331;52.528;13.342;2023-04-28T00:16:48;157951.47;;;8.14;99.76
29331;BME280;16331;52.528;13.342;2023-04-28T00:19:17;157933.66;;;8.08;100.00
29331;BME280;16331;52.528;13.342;2023-04-28T00:21:44;157918.59;;;8.02;100.00
29331;BME280;16331;52.528;13.342;2023-04-28T00:24:10;157936.38;;;8.09;100.00
29331;BME280;16331;52.528;13.342;2023-04-28T00:26:36;157943.25;;;8.11;100.00
29331;BME280;16331;52.528;13.342;2023-04-28T00:29:02;157929.56;;;8.06;100.00
29331;BME280;16331;52.528;13.342;2023-04-28T00:31:28;157943.25;;;8.11;100.00
29331;BME280;16331;52.528;13.342;2023-04-28T00:33:54;157959.66;;;8.17;100.00
29331;BME280;16331;52.528;13.342;2023-04-28T00:36:22;157918.59;;;8.02;100.00
29331;BME280;16331;52.528;13.342;2023-04-28T00:38:48;157928.19;;;8.06;100.00
29331;BME280;16331;52.528;13.342;2023-04-28T00:41:14;157959.66;;;8.17;100.00
29331;BME280;16331;52.528;13.342;2023-04-28T00:43:46;157948.69;;;8.13;100.00
29331;BME280;16331;52.528;13.342;2023-04-28T00:46:26;157929.56;;;8.06;100.00
29331;BME280;16331;52.528;13.342;2023-04-28T00:48:54;157902.16;;;7.96;100.00
29331;BME280;16331;52.528;13.342;2023-04-28T00:51:20;157937.78;;;8.09;100.00
29331;BME280;16331;52.528;13.342;2023-04-28T00:53:47;157947.34;;;8.13;100.00
29331;BME280;16331;52.528;13.342;2023-04-28T00:56:13;157976.13;;;8.23;100.00
29331;BME280;16331;52.528;13.342;2023-04-28T00:58:41;157940.47;;;8.10;100.00
29331;BME280;16331;52.528;13.342;2023-04-28T01:01:08;157887.09;;;7.91;100.00
29331;BME280;16331;52.528;13.342;2023-04-28T01:03:37;157915.88;;;8.01;100.00
29331;BME280;16331;52.528;13.342;2023-04-28T01:06:06;157909.00;;;7.99;100.00
29331;BME280;16331;52.528;13.342;2023-04-28T01:08:34;157940.47;;;8.10;100.00
29331;BME280;16331;52.528;13.342;2023-04-28T01:11:00;157936.38;;;8.09;100.00
29331;BME280;16331;52.528;13.342;2023-04-28T01:13:27;157926.78;;;8.05;100.00
29331;BME280;16331;52.528;13.342;2023-04-28T01:15:54;157910.38;;;7.99;100.00
29331;BME280;16331;52.528;13.342;2023-04-28T01:18:21;157932.28;;;8.07;100.00
29331;BME280;16331;52.528;13.342;2023-04-28T01:20:49;157965.16;;;8.19;100.00
29331;BME280;16331;52.528;13.342;2023-04-28T01:23:16;157976.13;;;8.23;100.00
29331;BME280;16331;52.528;13.342;2023-04-28T01:25:43;157945.97;;;8.12;100.00
29331;BME280;16331;52.528;13.342;2023-04-28T01:28:10;157921.34;;;8.03;100.00
29331;BME280;16331;52.528;13.342;2023-04-28T01:30:36;157932.28;;;8.07;100.00
29331;BME280;16331;52.528;13.342;2023-04-28T01:33:03;157910.38;;;7.99;100.00
29331;BME280;16331;52.528;13.342;2023-04-28T01:35:29;157885.75;;;7.90;100.00
29331;BME280;16331;52.528;13.342;2023-04-28T01:37:57;157907.66;;;7.98;100.00
29331;BME280;16331;52.528;13.342;2023-04-28T01:40:23;157929.56;;;8.06;100.00
29331;BME280;16331;52.528;13.342;2023-04-28T01:42:49;157817.31;;;7.65;100.00
29331;BME280;16331;52.528;13.342;2023-04-28T01:45:16;157795.41;;;7.57;100.00
29331;BME280;16331;52.528;13.342;2023-04-28T01:47:42;157874.78;;;7.86;100.00
29331;BME280;16331;52.528;13.342;2023-04-28T01:50:08;157888.47;;;7.91;100.00
29331;BME280;16331;52.528;13.342;2023-04-28T01:52:34;157902.16;;;7.96;100.00
29331;BME280;16331;52.528;13.342;2023-04-28T01:55:02;157885.75;;;7.90;100.00
29331;BME280;16331;52.528;13.342;2023-04-28T01:57:28;157847.47;;;7.76;100.00
29331;BME280;16331;52.528;13.342;2023-04-28T01:59:54;157863.88;;;7.82;100.00
29331;BME280;16331;52.528;13.342;2023-04-28T02:02:21;157874.78;;;7.86;100.00
29331;BME280;16331;52.528;13.342;2023-04-28T02:04:47;157874.78;;;7.86;100.00
29331;BME280;16331;52.528;13.342;2023-04-28T02:07:13;157883.00;;;7.89;100.00
29331;BME280;16331;52.528;13.342;2023-04-28T02:09:39;157880.28;;;7.88;100.00
29331;BME280;16331;52.528;13.342;2023-04-28T02:12:05;157877.56;;;7.87;100.00
29331;BME280;16331;52.528;13.342;2023-04-28T02:14:31;157906.28;;;7.98;100.00
29331;BME280;16331;52.528;13.342;2023-04-28T02:16:58;157917.25;;;8.02;100.00
29331;BME280;16331;52.528;13.342;2023-04-28T02:19:24;157904.91;;;7.97;100.00
29331;BME280;16331;52.528;13.342;2023-04-28T02:21:51;157892.59;;;7.93;100.00
29331;BME280;16331;52.528;13.342;2023-04-28T02:24:17;157896.69;;;7.94;100.00
29331;BME280;16331;52.528;13.342;2023-04-28T02:26:43;157883.00;;;7.89;100.00
29331;BME280;16331;52.528;13.342;2023-04-28T02:29:09;157906.28;;;7.98;100.00
29331;BME280;16331;52.528;13.342;2023-04-28T02:31:37;157888.47;;;7.91;100.00
29331;BME280;16331;52.528;13.342;2023-04-28T02:34:03;157883.00;;;7.89;100.00
29331;BME280;16331;52.528;13.342;2023-04-28T02:36:29;157881.66;;;7.89;100.00
29331;BME280;16331;52.528;13.342;2023-04-28T02:38:56;157885.75;;;7.90;100.00
29331;BME280;16331;52.528;13.342;2023-04-28T02:41:23;157869.34;;;7.84;100.00
29331;BME280;16331;52.528;13.342;2023-04-28T02:43:50;157841.97;;;7.74;100.00
29331;BME280;16331;52.528;13.342;2023-04-28T02:46:16;157836.50;;;7.72;100.00
29331;BME280;16331;52.528;13.342;2023-04-28T02:48:42;157809.09;;;7.62;100.00
29331;BME280;16331;52.528;13.342;2023-04-28T02:51:09;157818.69;;;7.66;100.00
29331;BME280;16331;52.528;13.342;2023-04-28T02:53:35;157829.66;;;7.70;100.00
29331;BME280;16331;52.528;13.342;2023-04-28T02:56:01;157824.19;;;7.68;100.00
29331;BME280;16331;52.528;13.342;2023-04-28T02:58:29;157817.31;;;7.65;100.00
29331;BME280;16331;52.528;13.342;2023-04-28T03:00:55;157828.28;;;7.69;100.00
29331;BME280;16331;52.528;13.342;2023-04-28T03:03:21;157800.91;;;7.59;100.00
29331;BME280;16331;52.528;13.342;2023-04-28T03:05:47;157839.19;;;7.73;100.00
29331;BME280;16331;52.528;13.342;2023-04-28T03:08:15;157833.78;;;7.71;100.00
29331;BME280;16331;52.528;13.342;2023-04-28T03:10:41;157820.06;;;7.66;100.00
29331;BME280;16331;52.528;13.342;2023-04-28T03:13:07;157806.38;;;7.61;100.00
29331;BME280;16331;52.528;13.342;2023-04-28T03:15:35;157847.47;;;7.76;100.00
29331;BME280;16331;52.528;13.342;2023-04-28T03:18:01;157839.19;;;7.73;100.00
29331;BME280;16331;52.528;13.342;2023-04-28T03:20:27;157805.00;;;7.61;100.00
29331;BME280;16331;52.528;13.342;2023-04-28T03:22:53;157839.19;;;7.73;100.00
29331;BME280;16331;52.528;13.342;2023-04-28T03:25:21;157831.00;;;7.70;100.00
29331;BME280;16331;52.528;13.342;2023-04-28T03:27:47;157802.28;;;7.60;100.00
29331;BME280;16331;52.528;13.342;2023-04-28T03:30:13;157825.56;;;7.68;100.00
29331;BME280;16331;52.528;13.342;2023-04-28T03:32:39;157795.41;;;7.57;100.00
29331;BME280;16331;52.528;13.342;2023-04-28T03:35:05;157809.09;;;7.62;100.00
29331;BME280;16331;52.528;13.342;2023-04-28T03:37:32;157790.00;;;7.55;100.00
29331;BME280;16331;52.528;13.342;2023-04-28T03:39:59;157795.41;;;7.57;100.00
29331;BME280;16331;52.528;13.342;2023-04-28T03:42:25;157811.88;;;7.63;100.00
29331;BME280;16331;52.528;13.342;2023-04-28T03:44:53;157852.91;;;7.78;100.00
29331;BME280;16331;52.528;13.342;2023-04-28T03:47:19;157825.56;;;7.68;100.00
29331;BME280;16331;52.528;13.342;2023-04-28T03:49:45;157832.38;;;7.71;100.00
29331;BME280;16331;52.528;13.342;2023-04-28T03:52:11;157852.91;;;7.78;100.00
29331;BME280;16331;52.528;13.342;2023-04-28T03:54:37;157891.25;;;7.92;100.00
29331;BME280;16331;52.528;13.342;2023-04-28T03:57:03;157896.69;;;7.94;100.00
29331;BME280;16331;52.528;13.342;2023-04-28T03:59:29;157906.28;;;7.98;100.00
29331;BME280;16331;52.528;13.342;2023-04-28T04:01:57;157913.16;;;8.00;100.00
29331;BME280;16331;52.528;13.342;2023-04-28T04:04:23;157902.16;;;7.96;100.00
29331;BME280;16331;52.528;13.342;2023-04-28T04:06:51;157914.47;;;8.01;100.00
29331;BME280;16331;52.528;13.342;2023-04-28T04:09:18;157902.16;;;7.96;100.00
29331;BME280;16331;52.528;13.342;2023-04-28T04:11:44;157881.66;;;7.89;100.00
29331;BME280;16331;52.528;13.342;2023-04-28T04:14:10;157921.34;;;8.03;100.00
29331;BME280;16331;52.528;13.342;2023-04-28T04:16:36;157941.88;;;8.11;100.00
29331;BME280;16331;52.528;13.342;2023-04-28T04:19:02;157941.88;;;8.11;100.00
29331;BME280;16331;52.528;13.342;2023-04-28T04:21:29;157918.59;;;8.02;100.00
29331;BME280;16331;52.528;13.342;2023-04-28T04:23:56;157895.34;;;7.94;100.00
29331;BME280;16331;52.528;13.342;2023-04-28T04:26:23;157937.78;;;8.09;100.00
29331;BME280;16331;52.528;13.342;2023-04-28T04:28:50;157951.47;;;8.14;100.00
29331;BME280;16331;52.528;13.342;2023-04-28T04:31:16;157939.16;;;8.10;100.00
29331;BME280;16331;52.528;13.342;2023-04-28T04:33:44;157995.31;;;8.30;100.00
29331;BME280;16331;52.528;13.342;2023-04-28T04:36:10;157991.22;;;8.29;100.00
29331;BME280;16331;52.528;13.342;2023-04-28T04:38:36;158022.66;;;8.40;100.00
29331;BME280;16331;52.528;13.342;2023-04-28T04:41:03;157996.66;;;8.31;100.00
29331;BME280;16331;52.528;13.342;2023-04-28T04:43:29;158021.34;;;8.40;100.00
29331;BME280;16331;52.528;13.342;2023-04-28T04:45:55;158048.69;;;8.50;100.00
29331;BME280;16331;52.528;13.342;2023-04-28T04:48:23;158041.84;;;8.47;100.00
29331;BME280;16331;52.528;13.342;2023-04-28T04:50:49;158082.97;;;8.62;100.00
29331;BME280;16331;52.528;13.342;2023-04-28T04:53:15;158077.47;;;8.60;100.00
29331;BME280;16331;52.528;13.342;2023-04-28T04:55:41;158062.38;;;8.55;100.00
29331;BME280;16331;52.528;13.342;2023-04-28T04:58:08;158078.84;;;8.61;100.00
29331;BME280;16331;52.528;13.342;2023-04-28T05:00:34;158087.06;;;8.64;100.00
29331;BME280;16331;52.528;13.342;2023-04-28T05:03:03;158085.69;;;8.63;100.00
29331;BME280;16331;52.528;13.342;2023-04-28T05:05:31;158087.06;;;8.64;100.00
29331;BME280;16331;52.528;13.342;2023-04-28T05:07:57;158108.97;;;8.72;100.00
29331;BME280;16331;52.528;13.342;2023-04-28T05:10:24;158115.81;;;8.74;100.00
29331;BME280;16331;52.528;13.342;2023-04-28T05:12:51;158181.53;;;8.99;100.00
29331;BME280;16331;52.528;13.342;2023-04-28T05:15:17;158271.97;;;9.32;100.00
29331;BME280;16331;52.528;13.342;2023-04-28T05:17:44;158383.00;;;9.72;100.00
29331;BME280;16331;52.528;13.342;2023-04-28T05:20:11;158435.09;;;9.91;100.00
29331;BME280;16331;52.528;13.342;2023-04-28T05:22:37;158506.47;;;10.17;100.00
29331;BME280;16331;52.528;13.342;2023-04-28T05:25:04;158490.03;;;10.11;99.54
29331;BME280;16331;52.528;13.342;2023-04-28T05:27:30;158356.94;;;9.63;100.00
29331;BME280;16331;52.528;13.342;2023-04-28T05:29:56;158302.09;;;9.43;100.00
29331;BME280;16331;52.528;13.342;2023-04-28T05:32:24;158300.78;;;9.42;100.00
29331;BME280;16331;52.528;13.342;2023-04-28T05:34:53;158332.31;;;9.54;100.00
29331;BME280;16331;52.528;13.342;2023-04-28T05:37:19;158345.97;;;9.59;100.00
29331;BME280;16331;52.528;13.342;2023-04-28T05:39:45;158363.78;;;9.65;100.00
29331;BME280;16331;52.528;13.342;2023-04-28T05:42:13;158372.00;;;9.68;100.00
29331;BME280;16331;52.528;13.342;2023-04-28T05:44:39;158337.75;;;9.56;100.00
29331;BME280;16331;52.528;13.342;2023-04-28T05:47:05;158418.66;;;9.85;100.00
29331;BME280;16331;52.528;13.342;2023-04-28T05:49:32;158422.75;;;9.87;100.00
29331;BME280;16331;52.528;13.342;2023-04-28T05:51:58;158448.81;;;9.96;100.00
29331;BME280;16331;52.528;13.342;2023-04-28T05:54:24;158494.13;;;10.13;99.50
29331;BME280;16331;52.528;13.342;2023-04-28T05:56:53;158494.13;;;10.13;99.34
29331;BME280;16331;52.528;13.342;2023-04-28T05:59:20;158474.84;;;10.06;98.49
29331;BME280;16331;52.528;13.342;2023-04-28T06:01:46;158538.00;;;10.29;97.92
29331;BME280;16331;52.528;13.342;2023-04-28T06:04:13;158614.81;;;10.57;95.54
29331;BME280;16331;52.528;13.342;2023-04-28T06:06:40;158643.59;;;10.68;94.51
29331;BME280;16331;52.528;13.342;2023-04-28T06:09:08;158623.03;;;10.60;92.61
29331;BME280;16331;52.528;13.342;2023-04-28T06:11:34;158595.59;;;10.50;94.61
29331;BME280;16331;52.528;13.342;2023-04-28T06:14:00;158616.19;;;10.58;94.35
29331;BME280;16331;52.528;13.342;2023-04-28T06:16:27;158732.81;;;11.00;92.68
29331;BME280;16331;52.528;13.342;2023-04-28T06:18:55;158852.25;;;11.44;90.12
29331;BME280;16331;52.528;13.342;2023-04-28T06:21:21;158789.06;;;11.21;89.34
29331;BME280;16331;52.528;13.342;2023-04-28T06:23:51;158886.56;;;11.56;87.54
29331;BME280;16331;52.528;13.342;2023-04-28T06:26:20;158916.81;;;11.68;84.81
29331;BME280;16331;52.528;13.342;2023-04-28T06:28:48;158941.53;;;11.77;83.84
29331;BME280;16331;52.528;13.342;2023-04-28T06:31:16;158879.72;;;11.54;83.10
29331;BME280;16331;52.528;13.342;2023-04-28T06:33:42;158925.06;;;11.71;82.71
29331;BME280;16331;52.528;13.342;2023-04-28T06:36:10;158875.56;;;11.52;83.26
29331;BME280;16331;52.528;13.342;2023-04-28T06:38:41;158775.34;;;11.16;85.11
29331;BME280;16331;52.528;13.342;2023-04-28T06:41:09;158760.28;;;11.10;86.96
29331;BME280;16331;52.528;13.342;2023-04-28T06:43:36;158903.03;;;11.62;83.31
29331;BME280;16331;52.528;13.342;2023-04-28T06:46:04;158806.94;;;11.27;83.05
29331;BME280;16331;52.528;13.342;2023-04-28T06:48:30;158760.28;;;11.10;84.96
29331;BME280;16331;52.528;13.342;2023-04-28T06:50:57;158826.16;;;11.34;82.67
29331;BME280;16331;52.528;13.342;2023-04-28T06:53:23;158806.94;;;11.27;81.61
29331;BME280;16331;52.528;13.342;2023-04-28T06:55:49;158817.94;;;11.31;82.27
29331;BME280;16331;52.528;13.342;2023-04-28T06:58:16;158806.94;;;11.27;81.72
29331;BME280;16331;52.528;13.342;2023-04-28T07:00:42;158892.06;;;11.58;80.12
29331;BME280;16331;52.528;13.342;2023-04-28T07:03:09;158887.97;;;11.57;79.65
29331;BME280;16331;52.528;13.342;2023-04-28T07:05:36;158975.91;;;11.89;76.83
29331;BME280;16331;52.528;13.342;2023-04-28T07:08:03;158929.19;;;11.72;77.51
29331;BME280;16331;52.528;13.342;2023-04-28T07:10:29;159021.19;;;12.06;75.96
29331;BME280;16331;52.528;13.342;2023-04-28T07:12:56;159070.69;;;12.24;74.82
29331;BME280;16331;52.528;13.342;2023-04-28T07:15:23;159114.66;;;12.40;72.94
29331;BME280;16331;52.528;13.342;2023-04-28T07:17:49;159128.41;;;12.45;71.69
29331;BME280;16331;52.528;13.342;2023-04-28T07:20:16;159221.81;;;12.79;70.06
29331;BME280;16331;52.528;13.342;2023-04-28T07:22:42;159243.81;;;12.87;66.93
29331;BME280;16331;52.528;13.342;2023-04-28T07:25:08;159245.22;;;12.87;65.74
29331;BME280;16331;52.528;13.342;2023-04-28T07:27:35;159234.25;;;12.83;63.27
29331;BME280;16331;52.528;13.342;2023-04-28T07:30:03;159235.56;;;12.84;62.75
29331;BME280;16331;52.528;13.342;2023-04-28T07:32:29;159201.22;;;12.71;63.15
29331;BME280;16331;52.528;13.342;2023-04-28T07:34:55;159217.72;;;12.77;62.67
29331;BME280;16331;52.528;13.342;2023-04-28T07:37:21;159195.72;;;12.69;62.88
29331;BME280;16331;52.528;13.342;2023-04-28T07:39:48;159183.34;;;12.65;63.87
29331;BME280;16331;52.528;13.342;2023-04-28T07:42:14;159228.72;;;12.81;63.46
29331;BME280;16331;52.528;13.342;2023-04-28T07:44:40;159375.88;;;13.35;62.18
29331;BME280;16331;52.528;13.342;2023-04-28T07:47:06;159465.31;;;13.68;59.85
29331;BME280;16331;52.528;13.342;2023-04-28T07:49:33;159433.66;;;13.56;59.53
29331;BME280;16331;52.528;13.342;2023-04-28T07:52:00;159385.53;;;13.39;60.19
29331;BME280;16331;52.528;13.342;2023-04-28T07:54:28;159411.66;;;13.48;59.06
29331;BME280;16331;52.528;13.342;2023-04-28T07:56:58;159444.69;;;13.60;59.36
29331;BME280;16331;52.528;13.342;2023-04-28T07:59:26;159364.91;;;13.31;59.52
29331;BME280;16331;52.528;13.342;2023-04-28T08:01:54;159450.16;;;13.62;59.15
29331;BME280;16331;52.528;13.342;2023-04-28T08:04:20;159498.31;;;13.80;58.55
29331;BME280;16331;52.528;13.342;2023-04-28T08:06:46;159436.44;;;13.57;59.19
29331;BME280;16331;52.528;13.342;2023-04-28T08:09:12;159454.28;;;13.64;59.48
29331;BME280;16331;52.528;13.342;2023-04-28T08:11:38;159404.78;;;13.46;60.07
29331;BME280;16331;52.528;13.342;2023-04-28T08:14:05;159451.56;;;13.63;60.00
29331;BME280;16331;52.528;13.342;2023-04-28T08:16:31;159441.91;;;13.59;59.21
29331;BME280;16331;52.528;13.342;2023-04-28T08:18:59;159381.41;;;13.37;61.18
29331;BME280;16331;52.528;13.342;2023-04-28T08:21:25;159458.47;;;13.65;60.14
29331;BME280;16331;52.528;13.342;2023-04-28T08:23:52;159634.59;;;14.29;58.72
29331;BME280;16331;52.528;13.342;2023-04-28T08:26:18;159546.47;;;13.97;58.59
29331;BME280;16331;52.528;13.342;2023-04-28T08:28:44;159611.19;;;14.21;59.17
29331;BME280;16331;52.528;13.342;2023-04-28T08:31:10;159674.53;;;14.44;57.79
29331;BME280;16331;52.528;13.342;2023-04-28T08:33:36;159739.28;;;14.68;56.19
29331;BME280;16331;52.528;13.342;2023-04-28T08:36:04;159795.72;;;14.88;55.38
29331;BME280;16331;52.528;13.342;2023-04-28T08:38:31;159797.06;;;14.89;54.80
29331;BME280;16331;52.528;13.342;2023-04-28T08:40:58;159803.97;;;14.91;54.67
29331;BME280;16331;52.528;13.342;2023-04-28T08:43:25;159779.16;;;14.82;54.94
29331;BME280;16331;52.528;13.342;2023-04-28T08:45:52;159780.56;;;14.83;55.93
29331;BME280;16331;52.528;13.342;2023-04-28T08:48:20;159728.22;;;14.64;55.44
29331;BME280;16331;52.528;13.342;2023-04-28T08:50:53;159794.34;;;14.88;54.86
29331;BME280;16331;52.528;13.342;2023-04-28T08:53:26;159810.84;;;14.94;55.66
29331;BME280;16331;52.528;13.342;2023-04-28T08:55:55;159842.53;;;15.05;54.30
29331;BME280;16331;52.528;13.342;2023-04-28T08:58:23;159852.19;;;15.09;54.29
29331;BME280;16331;52.528;13.342;2023-04-28T09:00:53;159863.19;;;15.13;53.66
29331;BME280;16331;52.528;13.342;2023-04-28T09:03:19;159849.47;;;15.08;53.59
29331;BME280;16331;52.528;13.342;2023-04-28T09:05:46;159933.50;;;15.38;53.90
29331;BME280;16331;52.528;13.342;2023-04-28T09:08:12;160001.03;;;15.63;52.93
29331;BME280;16331;52.528;13.342;2023-04-28T09:10:39;159981.72;;;15.56;51.92
29331;BME280;16331;52.528;13.342;2023-04-28T09:13:05;159854.91;;;15.10;52.04
29331;BME280;16331;52.528;13.342;2023-04-28T09:15:37;159878.38;;;15.18;52.53
29331;BME280;16331;52.528;13.342;2023-04-28T09:18:07;159967.97;;;15.51;51.28
29331;BME280;16331;52.528;13.342;2023-04-28T09:20:39;159918.31;;;15.33;51.21
29331;BME280;16331;52.528;13.342;2023-04-28T09:23:19;159950.06;;;15.44;51.75
29331;BME280;16331;52.528;13.342;2023-04-28T09:26:03;160097.50;;;15.98;51.09
29331;BME280;16331;52.528;13.342;2023-04-28T09:28:31;160061.66;;;15.85;51.59
29331;BME280;16331;52.528;13.342;2023-04-28T09:30:57;160143.03;;;16.15;50.61
29331;BME280;16331;52.528;13.342;2023-04-28T09:33:25;160138.88;;;16.13;50.09
29331;BME280;16331;52.528;13.342;2023-04-28T09:35:51;160119.56;;;16.06;49.38
29331;BME280;16331;52.528;13.342;2023-04-28T09:38:19;160069.94;;;15.88;49.72
29331;BME280;16331;52.528;13.342;2023-04-28T09:41:00;160177.47;;;16.27;49.58
29331;BME280;16331;52.528;13.342;2023-04-28T09:43:35;160260.25;;;16.57;49.00
29331;BME280;16331;52.528;13.342;2023-04-28T09:46:04;160194.00;;;16.33;48.74
29331;BME280;16331;52.528;13.342;2023-04-28T09:48:34;160336.16;;;16.85;48.31
29331;BME280;16331;52.528;13.342;2023-04-28T09:51:03;160275.47;;;16.63;48.24
29331;BME280;16331;52.528;13.342;2023-04-28T09:53:31;160260.25;;;16.57;48.37
29331;BME280;16331;52.528;13.342;2023-04-28T09:55:59;160298.88;;;16.71;47.59
29331;BME280;16331;52.528;13.342;2023-04-28T09:58:27;160345.81;;;16.88;47.35
29331;BME280;16331;52.528;13.342;2023-04-28T10:00:55;160340.28;;;16.86;47.48
29331;BME280;16331;52.528;13.342;2023-04-28T10:03:27;160176.09;;;16.27;48.65
29331;BME280;16331;52.528;13.342;2023-04-28T10:05:53;160384.44;;;17.02;48.41
29331;BME280;16331;52.528;13.342;2023-04-28T10:08:21;160439.59;;;17.22;47.94
29331;BME280;16331;52.528;13.342;2023-04-28T10:10:52;160376.16;;;16.99;48.04
29331;BME280;16331;52.528;13.342;2023-04-28T10:13:20;160475.50;;;17.35;47.60
29331;BME280;16331;52.528;13.342;2023-04-28T10:15:49;160366.50;;;16.96;48.04
29331;BME280;16331;52.528;13.342;2023-04-28T10:18:15;160329.22;;;16.82;48.07
29331;BME280;16331;52.528;13.342;2023-04-28T10:20:44;160332.00;;;16.83;48.04
29331;BME280;16331;52.528;13.342;2023-04-28T10:23:34;160494.81;;;17.43;47.32
29331;BME280;16331;52.528;13.342;2023-04-28T10:26:03;160486.56;;;17.40;46.97
29331;BME280;16331;52.528;13.342;2023-04-28T10:28:35;160423.06;;;17.16;47.73
29331;BME280;16331;52.528;13.342;2023-04-28T10:31:15;160432.72;;;17.20;47.98
29331;BME280;16331;52.528;13.342;2023-04-28T10:33:42;160522.50;;;17.53;47.17
29331;BME280;16331;52.528;13.342;2023-04-28T10:36:10;160416.16;;;17.14;48.05
29331;BME280;16331;52.528;13.342;2023-04-28T10:39:09;160458.94;;;17.29;47.50
29331;BME280;16331;52.528;13.342;2023-04-28T10:41:36;160472.75;;;17.34;46.84
29331;BME280;16331;52.528;13.342;2023-04-28T10:47:04;160670.22;;;18.06;45.83
29331;BME280;16331;52.528;13.342;2023-04-28T10:55:32;160715.78;;;18.23;45.32
29331;BME280;16331;52.528;13.342;2023-04-28T11:00:54;160909.25;;;18.93;44.11
29331;BME280;16331;52.528;13.342;2023-04-28T11:03:49;160918.94;;;18.97;43.80
29331;BME280;16331;52.528;13.342;2023-04-28T11:06:29;161017.09;;;19.32;42.98
29331;BME280;16331;52.528;13.342;2023-04-28T11:11:32;161296.53;;;20.34;40.86
29331;BME280;16331;52.528;13.342;2023-04-28T11:17:10;160920.28;;;18.97;42.95
29331;BME280;16331;52.528;13.342;2023-04-28T11:19:43;160912.00;;;18.94;43.76
29331;BME280;16331;52.528;13.342;2023-04-28T11:22:15;160979.75;;;19.19;42.82
29331;BME280;16331;52.528;13.342;2023-04-28T11:24:54;161252.25;;;20.18;41.19
29331;BME280;16331;52.528;13.342;2023-04-28T11:27:25;161028.19;;;19.36;41.55
29331;BME280;16331;52.528;13.342;2023-04-28T11:29:51;160902.31;;;18.91;42.53
29331;BME280;16331;52.528;13.342;2023-04-28T11:32:28;161028.19;;;19.36;42.66
29331;BME280;16331;52.528;13.342;2023-04-28T11:34:55;160883.00;;;18.84;42.86
29331;BME280;16331;52.528;13.342;2023-04-28T11:37:21;161018.50;;;19.33;42.62
29331;BME280;16331;52.528;13.342;2023-04-28T11:39:48;161044.75;;;19.42;42.04
29331;BME280;16331;52.528;13.342;2023-04-28T11:42:15;160920.28;;;18.97;42.67
29331;BME280;16331;52.528;13.342;2023-04-28T11:44:49;161008.81;;;19.29;42.63
29331;BME280;16331;52.528;13.342;2023-04-28T11:47:32;160983.88;;;19.20;42.55
29331;BME280;16331;52.528;13.342;2023-04-28T11:49:58;160866.38;;;18.77;43.10
29331;BME280;16331;52.528;13.342;2023-04-28T11:52:24;160912.00;;;18.94;43.24
29331;BME280;16331;52.528;13.342;2023-04-28T11:54:56;161036.47;;;19.39;42.80
29331;BME280;16331;52.528;13.342;2023-04-28T11:57:24;161068.28;;;19.51;42.48
29331;BME280;16331;52.528;13.342;2023-04-28T11:59:51;161185.81;;;19.93;41.53
29331;BME280;16331;52.528;13.342;2023-04-28T12:02:28;161196.91;;;19.97;41.40
29331;BME280;16331;52.528;13.342;2023-04-28T12:04:55;161387.84;;;20.67;40.39
29331;BME280;16331;52.528;13.342;2023-04-28T12:07:23;161590.03;;;21.40;39.00
29331;BME280;16331;52.528;13.342;2023-04-28T12:10:09;161243.94;;;20.15;40.62
29331;BME280;16331;52.528;13.342;2023-04-28T12:12:36;161119.41;;;19.69;41.74
29331;BME280;16331;52.528;13.342;2023-04-28T12:15:05;161079.31;;;19.55;42.21
29331;BME280;16331;52.528;13.342;2023-04-28T12:17:39;160943.81;;;19.06;43.33
29331;BME280;16331;52.528;13.342;2023-04-28T12:20:10;160827.72;;;18.63;44.04
29331;BME280;16331;52.528;13.342;2023-04-28T12:22:44;160775.22;;;18.44;44.49
29331;BME280;16331;52.528;13.342;2023-04-28T12:25:14;160778.00;;;18.45;44.70
29331;BME280;16331;52.528;13.342;2023-04-28T12:28:04;160856.75;;;18.74;44.88
29331;BME280;16331;52.528;13.342;2023-04-28T12:30:33;161046.16;;;19.43;43.80
29331;BME280;16331;52.528;13.342;2023-04-28T12:33:00;161108.38;;;19.65;43.56
29331;BME280;16331;52.528;13.342;2023-04-28T12:35:27;161253.66;;;20.18;42.34
29331;BME280;16331;52.528;13.342;2023-04-28T12:37:55;161149.84;;;19.80;42.62
29331;BME280;16331;52.528;13.342;2023-04-28T12:40:21;160793.19;;;18.51;45.07
29331;BME280;16331;52.528;13.342;2023-04-28T12:42:50;160786.28;;;18.48;45.44
29331;BME280;16331;52.528;13.342;2023-04-28T12:45:16;160990.78;;;19.23;44.60
29331;BME280;16331;52.528;13.342;2023-04-28T12:47:42;160946.53;;;19.07;44.57
29331;BME280;16331;52.528;13.342;2023-04-28T12:50:09;161089.00;;;19.58;44.11
29331;BME280;16331;52.528;13.342;2023-04-28T12:52:36;160950.69;;;19.08;44.49
29331;BME280;16331;52.528;13.342;2023-04-28T12:55:05;160809.75;;;18.57;45.62
29331;BME280;16331;52.528;13.342;2023-04-28T12:57:32;160996.31;;;19.25;44.92
29331;BME280;16331;52.528;13.342;2023-04-28T12:59:58;160952.09;;;19.09;44.88
29331;BME280;16331;52.528;13.342;2023-04-28T13:02:24;161051.66;;;19.45;44.70